KSLC METAR and TAF | Updated Today

KSLC METAR

Salt Lake City International Airport

Observation time: 30 min. ago

KSLC 261254Z 00000KT 10SM SCT075 SCT080 SCT120 SCT150 18/06 A3023 RMK AO2 SLP181 FU SCT075 SH DSNT SW T01830056

Need help? Read our tutorial on how to read METARs or read the parsed version below.

Salt Lake City International Airport (KSLC) METAR

  • Weather conditions on Sun, 26 Jun 2022 12:54:00 +0000 (30 min. ago):
  • Present conditions: Dry
  • Clouds: Scattered at 2286 meters; scattered at 2438 meters; scattered at 3658 meters; scattered at 4572 meters
  • Visibility: 16093 meters
  • Wind: Calm
  • Temperature: 18 celsius
  • Dew point: 6 celsius
  • Pressure: 30.23 inHg
  • Remarks: AO2 SLP181 FU SCT075 SH DSNT SW T01830056


Useful to know...

KSLC TAF

Salt Lake City International Airport

KSLC 261120Z 2612/2718 20006KT P6SM SKC FM261400 35006KT P6SM FEW150 FM270500 13006KT P6SM FEW150
Observation time: 2:04 hr. ago
Need help? Read our tutorial on how to read TAFs or read the parsed version below.

Parsed version of TAF for Salt Lake City International Airport (KSLC)

  • From 26 June at 12:00 UTC, to day 27 of the month at 18:00 UTC
  • Clouds: No significant changes expected
  • Wind: 200 degrees at 6
  • From day 26 of the month at 14:00 UTC
  • Clouds: A few at 4572 meters
  • Wind: 350 degrees at 6
  • From day 27 of the month at 05:00 UTC
  • Clouds: A few at 4572 meters
  • Wind: 130 degrees at 6